Weather History for Brookings, SD

Change the Weather History Date:

Tuesday, July 9, 2013

  Actual Average Record
Temperature  
Mean Temperature 72 °F -  
Max Temperature 80 °F 79 °F 89 °F (2001)
Min Temperature 64 °F 59 °F 48 °F (1996)
Cooling Degree Days 7    
Growing Degree Days 22 (Base 50)    
Moisture  
Dew Point 66 °F    
Average Humidity 78    
Maximum Humidity 94    
Minimum Humidity 58    
Precipitation  
Precipitation 0.74 in - - ()
Sea Level Pressure  
Sea Level Pressure 29.96 in    
Wind  
Wind Speed 10 mph (NW)    
Max Wind Speed 33 mph    
Max Gust Speed 44 mph    
Visibility 10 miles    
Events Thunderstorm    
Averages and records for this station are not official NWS values.
T = Trace of Precipitation, MM = Missing Value Source: NWS Daily Summary

Daily Weather History Graph

Daily Weather History Graph

Search for Another Location

Airport:

Trip Planner

Search our weather history database for the weather conditions in past years. The results will help you decide how hot, cold, wet, or windy it might be!

Date:

Astronomy

Jul. 09, 2013 Rise Set
Actual Time 5:52 AM CDT 9:12 PM CDT
Civil Twilight 5:16 AM CDT 9:47 PM CDT
Nautical Twilight 4:30 AM CDT 10:34 PM CDT
Astronomical Twilight 3:31 AM CDT 11:32 PM CDT
Moon 7:23 AM CDT (7/9) 9:43 PM CDT (7/9)
Length of Visible Light 16h 31m
Length of Day
15h 19m
New Moon, 2% of the Moon is Illuminated
Jul 9
New Moon
Jul 15
First Quarter
Jul 22
Full
Jul 29
Last Quarter
Aug 6
New

Hourly Weather History & Observations

Time (CDT) Temp. Heat Index Dew Point Humidity Pressure Visibility Wind Dir Wind Speed Gust Speed Precip Events Conditions
12:15 AM 75.2 °F - 68.0 °F 78% 29.95 in 10.0 mi South 8.1 mph - N/A   Clear
12:35 AM 75.2 °F - 68.0 °F 78% 29.95 in 10.0 mi South 9.2 mph - N/A   Clear
12:55 AM 73.4 °F - 68.0 °F 83% 29.94 in 10.0 mi South 3.5 mph - N/A   Clear
1:15 AM 73.4 °F - 68.0 °F 83% 29.93 in 10.0 mi South 9.2 mph - N/A   Clear
1:35 AM 75.2 °F - 68.0 °F 78% 29.93 in 10.0 mi SSE 5.8 mph - N/A   Clear
1:55 AM 73.4 °F - 68.0 °F 83% 29.92 in 10.0 mi South 8.1 mph - N/A   Clear
2:15 AM 75.2 °F - 68.0 °F 78% 29.92 in 10.0 mi South 5.8 mph - N/A   Clear
2:35 AM 73.4 °F - 68.0 °F 83% 29.91 in 10.0 mi South 5.8 mph - N/A   Clear
2:55 AM 73.4 °F - 68.0 °F 83% 29.87 in 10.0 mi South 4.6 mph - N/A   Clear
3:15 AM 73.4 °F - 69.8 °F 88% 29.88 in 10.0 mi South 5.8 mph - N/A   Clear
3:35 AM 73.4 °F - 69.8 °F 88% 29.88 in 10.0 mi South 4.6 mph - N/A   Clear
3:55 AM 73.4 °F - 69.8 °F 88% 29.88 in 10.0 mi South 6.9 mph - N/A   Partly Cloudy
4:15 AM 73.4 °F - 69.8 °F 88% 29.92 in 9.0 mi NW 4.6 mph - N/A   Mostly Cloudy
4:35 AM 71.6 °F - 69.8 °F 94% 29.98 in 5.0 mi North 12.7 mph - 0.02 in Thunderstorm Mostly Cloudy
4:55 AM 64.4 °F - 62.6 °F 94% 29.99 in 1.5 mi NW 33.4 mph 43.7 mph 0.60 in Thunderstorm Thunderstorm
5:15 AM 64.4 °F - 62.6 °F 94% 29.99 in 10.0 mi North 8.1 mph 24.2 mph 0.10 in Thunderstorm Thunderstorm
5:35 AM 64.4 °F - 62.6 °F 94% 29.92 in 9.0 mi ESE 9.2 mph - 0.13 in Thunderstorm Thunderstorm
5:55 AM 64.4 °F - 62.6 °F 94% 29.87 in 10.0 mi ESE 13.8 mph - 0.14 in   Mostly Cloudy
6:15 AM 64.4 °F - 62.6 °F 94% 29.91 in 10.0 mi South 4.6 mph 17.3 mph N/A   Scattered Clouds
6:35 AM 66.2 °F - 62.6 °F 88% 29.88 in 10.0 mi South 5.8 mph - N/A   Clear
6:55 AM 66.2 °F - 62.6 °F 88% 29.87 in 10.0 mi South 3.5 mph - N/A   Clear
7:15 AM 66.2 °F - 62.6 °F 88% 29.87 in 10.0 mi SSW 5.8 mph - N/A   Clear
7:35 AM 64.4 °F - 62.6 °F 94% 29.86 in 10.0 mi SSW 4.6 mph - N/A   Clear
7:55 AM 66.2 °F - 64.4 °F 94% 29.87 in 10.0 mi SSW 6.9 mph - N/A   Clear
8:15 AM 68.0 °F - 64.4 °F 88% 29.88 in 10.0 mi SW 9.2 mph - N/A   Clear
8:35 AM 69.8 °F - 64.4 °F 83% 29.90 in 10.0 mi SW 9.2 mph - N/A   Clear
8:55 AM 71.6 °F - 66.2 °F 83% 29.91 in 10.0 mi SW 9.2 mph - N/A   Clear
9:15 AM 71.6 °F - 66.2 °F 83% 29.92 in 10.0 mi WSW 8.1 mph - N/A   Clear
9:35 AM 73.4 °F - 66.2 °F 78% 29.93 in 10.0 mi West 9.2 mph - N/A   Clear
9:55 AM 73.4 °F - 68.0 °F 83% 29.94 in 10.0 mi West 9.2 mph - N/A   Clear
10:15 AM 75.2 °F - 68.0 °F 78% 29.95 in 10.0 mi NW 12.7 mph - N/A   Clear
10:35 AM 75.2 °F - 68.0 °F 78% 29.95 in 10.0 mi NW 12.7 mph - N/A   Clear
10:55 AM 75.2 °F - 68.0 °F 78% 29.95 in 10.0 mi NW 15.0 mph 18.4 mph N/A   Partly Cloudy
11:15 AM 75.2 °F - 68.0 °F 78% 29.96 in 10.0 mi NW 13.8 mph 19.6 mph N/A   Scattered Clouds
11:35 AM 75.2 °F - 69.8 °F 83% 29.96 in 10.0 mi NW 13.8 mph 19.6 mph N/A   Mostly Cloudy
11:55 AM 75.2 °F - 69.8 °F 83% 29.97 in 10.0 mi NW 13.8 mph 17.3 mph N/A   Mostly Cloudy
12:15 PM 75.2 °F - 68.0 °F 78% 29.97 in 10.0 mi NW 17.3 mph 21.9 mph N/A   Mostly Cloudy
12:35 PM 75.2 °F - 66.2 °F 73% 29.97 in 10.0 mi NW 17.3 mph - N/A   Scattered Clouds
12:55 PM 75.2 °F - 68.0 °F 78% 29.97 in 10.0 mi NW 15.0 mph - N/A   Partly Cloudy
1:15 PM 75.2 °F - 68.0 °F 78% 29.97 in 10.0 mi NW 16.1 mph - N/A   Partly Cloudy
1:35 PM 75.2 °F - 68.0 °F 78% 29.96 in 10.0 mi NW 15.0 mph 20.7 mph N/A   Partly Cloudy
1:55 PM 77.0 °F - 66.2 °F 69% 29.97 in 10.0 mi NNW 17.3 mph 23.0 mph N/A   Clear
2:15 PM 77.0 °F - 66.2 °F 69% 29.97 in 10.0 mi NNW 17.3 mph 21.9 mph N/A   Clear
2:35 PM 78.8 °F - 66.2 °F 65% 29.98 in 10.0 mi NNW 16.1 mph 23.0 mph N/A   Clear
2:55 PM 78.8 °F - 68.0 °F 69% 29.98 in 10.0 mi NW 17.3 mph 21.9 mph N/A   Clear
3:15 PM 78.8 °F - 68.0 °F 69% 29.98 in 10.0 mi NW 17.3 mph 20.7 mph N/A   Clear
3:35 PM 80.6 °F 82.7 °F 66.2 °F 61% 29.98 in 10.0 mi NW 18.4 mph - N/A   Clear
3:55 PM 80.6 °F 82.3 °F 64.4 °F 58% 29.98 in 10.0 mi NW 16.1 mph 21.9 mph N/A   Clear
4:15 PM 80.6 °F 82.3 °F 64.4 °F 58% 29.99 in 10.0 mi NNW 13.8 mph - N/A   Scattered Clouds
4:35 PM 80.6 °F 82.3 °F 64.4 °F 58% 29.99 in 10.0 mi NNW 15.0 mph 20.7 mph N/A   Overcast
4:55 PM 80.6 °F 82.7 °F 66.2 °F 61% 29.99 in 10.0 mi NNW 11.5 mph 19.6 mph N/A   Overcast
5:15 PM 80.6 °F 82.3 °F 64.4 °F 58% 29.99 in 10.0 mi NNW 13.8 mph 19.6 mph N/A   Scattered Clouds
5:35 PM 80.6 °F 82.7 °F 66.2 °F 61% 29.99 in 10.0 mi NNW 12.7 mph 17.3 mph N/A   Clear
5:55 PM 80.6 °F 82.7 °F 66.2 °F 61% 29.99 in 10.0 mi NNW 16.1 mph - N/A   Clear
6:15 PM 80.6 °F 82.7 °F 66.2 °F 61% 29.99 in 10.0 mi North 12.7 mph - N/A   Clear
6:35 PM 80.6 °F 82.3 °F 64.4 °F 58% 29.99 in 10.0 mi NNW 12.7 mph - N/A   Clear
6:55 PM 80.6 °F 82.7 °F 66.2 °F 61% 29.99 in 10.0 mi NNW 10.4 mph - N/A   Clear
7:15 PM 80.6 °F 82.7 °F 66.2 °F 61% 29.99 in 10.0 mi North 12.7 mph - N/A   Mostly Cloudy
7:35 PM 80.6 °F 82.3 °F 64.4 °F 58% 29.99 in 10.0 mi North 9.2 mph - N/A   Scattered Clouds
7:55 PM 80.6 °F 82.7 °F 66.2 °F 61% 30.00 in 10.0 mi North 9.2 mph - N/A   Mostly Cloudy
8:15 PM 78.8 °F - 66.2 °F 65% 30.00 in 10.0 mi North 6.9 mph - N/A   Mostly Cloudy
8:35 PM 77.0 °F - 66.2 °F 69% 30.00 in 10.0 mi North 6.9 mph - N/A   Mostly Cloudy
8:55 PM 75.2 °F - 66.2 °F 73% 30.01 in 10.0 mi NNE 12.7 mph - N/A   Mostly Cloudy
9:15 PM 73.4 °F - 66.2 °F 78% 30.01 in 10.0 mi NNE 9.2 mph - N/A   Partly Cloudy
9:35 PM 71.6 °F - 66.2 °F 83% 30.02 in 10.0 mi NNE 4.6 mph - N/A   Clear
9:55 PM 71.6 °F - 66.2 °F 83% 30.02 in 10.0 mi Calm Calm - N/A   Clear
10:15 PM 71.6 °F - 66.2 °F 83% 30.04 in 10.0 mi NNW 3.5 mph - N/A   Clear
10:35 PM 71.6 °F - 66.2 °F 83% 30.05 in 10.0 mi NNW 6.9 mph - N/A   Clear
10:55 PM 66.2 °F - 64.4 °F 94% 30.06 in 10.0 mi North 5.8 mph - N/A   Clear
11:15 PM 68.0 °F - 64.4 °F 88% 30.06 in 10.0 mi NNE 9.2 mph - N/A   Clear
11:35 PM - - - N/A% - 10.0 mi North - - N/A   Clear
11:55 PM 66.2 °F - 64.4 °F 94% 30.07 in 10.0 mi North 6.9 mph - N/A   Clear